Time;durP1;ratioP1;P1;durP2;ratioP2;P2;SDS_P1;SDS_P2;PMS_P1;PMS_P2;Temp;Humidity;BMP_temperature;BMP_pressure;BME280_temperature;BME280_humidity;BME280_pressure;Samples;Min_cycle;Max_cycle;Signal;HPM_P1;HPM_P2
2023/05/21 00:01:04;;;;;;;32.90;25.90;;;;;;;14.20;82.35;100767.58;129603;1258;114646;-65
2023/05/21 00:04:14;;;;;;;35.00;25.30;;;;;;;14.22;81.97;100770.75;129513;1280;115163;-66
2023/05/21 00:07:17;;;;;;;31.20;25.70;;;;;;;14.21;81.90;100772.36;129660;1263;114842;-66
2023/05/21 00:10:20;;;;;;;31.70;25.00;;;;;;;14.21;81.61;100768.79;129598;1262;115121;-66
2023/05/21 00:13:22;;;;;;;29.60;23.50;;;;;;;14.21;81.35;100770.21;129814;1261;114811;-64
2023/05/21 00:16:24;;;;;;;27.70;22.70;;;;;;;14.21;81.46;100770.04;129594;1270;114780;-66
2023/05/21 00:19:26;;;;;;;27.30;23.30;;;;;;;14.20;81.08;100766.16;129519;1260;129008;-63
2023/05/21 00:22:29;;;;;;;31.60;22.80;;;;;;;14.18;81.09;100767.00;129523;1280;115171;-64
2023/05/21 00:25:32;;;;;;;27.50;21.80;;;;;;;14.17;81.14;100764.01;129816;1257;114734;-64
2023/05/21 00:28:34;;;;;;;27.20;21.40;;;;;;;14.15;80.93;100760.33;129678;1270;115167;-64
2023/05/21 00:31:36;;;;;;;25.40;21.70;;;;;;;14.12;81.00;100759.77;129468;1264;114919;-64
2023/05/21 00:34:38;;;;;;;27.00;21.70;;;;;;;14.10;80.82;100760.27;129671;1259;114837;-64
2023/05/21 00:37:41;;;;;;;28.30;22.50;;;;;;;14.07;80.72;100758.61;129572;1261;114687;-64
2023/05/21 00:40:43;;;;;;;28.70;22.60;;;;;;;14.05;80.83;100757.84;129643;1257;115512;-63
2023/05/21 00:43:46;;;;;;;30.90;22.80;;;;;;;14.02;80.63;100759.63;129526;1280;115281;-63
2023/05/21 00:46:52;;;;;;;32.30;22.60;;;;;;;13.99;80.56;100760.48;129551;1273;115093;-65
2023/05/21 00:49:54;;;;;;;27.60;22.50;;;;;;;13.96;80.49;100761.73;129698;1259;114739;-66
2023/05/21 00:52:58;;;;;;;25.20;21.60;;;;;;;13.92;80.27;100761.23;129390;1262;115158;-64
2023/05/21 00:56:01;;;;;;;25.60;20.60;;;;;;;13.87;80.24;100760.99;129393;1258;114746;-64
2023/05/21 00:59:04;;;;;;;29.30;22.50;;;;;;;13.82;80.22;100761.83;129535;1259;114762;-65
2023/05/21 01:02:08;;;;;;;24.10;21.30;;;;;;;13.76;80.38;100758.36;129770;1258;114751;-65
2023/05/21 01:05:10;;;;;;;30.60;23.80;;;;;;;13.72;80.50;100757.16;129610;1258;115170;-65
2023/05/21 01:08:13;;;;;;;26.40;22.80;;;;;;;13.69;80.70;100754.43;129657;1259;114858;-65
2023/05/21 01:11:16;;;;;;;29.00;23.10;;;;;;;13.67;80.83;100752.95;129546;1256;115558;-65
2023/05/21 01:14:19;;;;;;;27.60;22.10;;;;;;;13.64;80.98;100748.25;129585;1257;114738;-65
2023/05/21 01:17:23;;;;;;;26.50;22.60;;;;;;;13.62;81.00;100743.02;129722;1261;114728;-65
2023/05/21 01:20:26;;;;;;;29.20;22.60;;;;;;;13.60;81.07;100736.80;129571;1257;114894;-65
2023/05/21 01:23:29;;;;;;;26.40;21.40;;;;;;;13.60;81.29;100736.30;129674;1274;114862;-66
2023/05/21 01:26:32;;;;;;;32.50;23.00;;;;;;;13.60;81.25;100734.69;129634;1257;114807;-66
2023/05/21 01:29:35;;;;;;;31.50;22.50;;;;;;;13.58;81.34;100732.42;129643;1257;115029;-66
2023/05/21 01:33:00;;;;;;;25.40;21.50;;;;;;;13.58;81.20;100737.09;129564;1260;115242;-65
2023/05/21 01:36:10;;;;;;;26.50;21.70;;;;;;;13.58;81.11;100735.34;129087;1262;115256;-66
2023/05/21 01:39:20;;;;;;;24.70;20.60;;;;;;;13.56;80.95;100732.95;129285;1285;114950;-66
2023/05/21 01:42:23;;;;;;;24.70;20.80;;;;;;;13.53;80.95;100732.02;129127;1265;115400;-68
2023/05/21 01:45:26;;;;;;;25.30;21.60;;;;;;;13.48;80.96;100727.77;129277;1274;114876;-66
2023/05/21 01:48:29;;;;;;;27.20;21.10;;;;;;;13.46;80.80;100732.90;129175;1268;115239;-66
2023/05/21 01:51:32;;;;;;;28.10;20.40;;;;;;;13.43;80.82;100725.89;129308;1277;115256;-66
2023/05/21 01:54:34;;;;;;;28.10;20.40;;;;;;;13.40;80.92;100726.23;129220;1264;114871;-66
2023/05/21 01:57:37;;;;;;;25.20;20.80;;;;;;;13.37;80.92;100724.04;129223;1264;114873;-66
2023/05/21 02:00:40;;;;;;;23.10;19.00;;;;;;;13.34;80.98;100721.85;129652;1262;114813;-66
2023/05/21 02:03:42;;;;;;;25.40;21.00;;;;;;;13.32;81.01;100725.73;129229;1278;129186;-66
2023/05/21 02:06:45;;;;;;;23.70;20.20;;;;;;;13.28;80.93;100719.48;129429;1265;114798;-66
2023/05/21 02:09:47;;;;;;;21.40;19.10;;;;;;;13.25;80.99;100716.23;129222;1285;114955;-67
2023/05/21 02:12:49;;;;;;;26.10;20.90;;;;;;;13.20;81.07;100717.92;129418;1265;114809;-66
2023/05/21 02:15:53;;;;;;;25.60;20.80;;;;;;;13.16;80.98;100719.76;129570;1262;115389;-65
2023/05/21 02:18:56;;;;;;;23.10;20.60;;;;;;;13.12;80.94;100717.30;130002;1270;114717;-66
2023/05/21 02:21:58;;;;;;;29.30;19.10;;;;;;;13.07;80.73;100717.05;129642;1265;126919;-65
2023/05/21 02:25:01;;;;;;;24.30;19.50;;;;;;;13.01;80.73;100717.55;129859;1280;115150;-67
2023/05/21 02:28:04;;;;;;;24.00;18.90;;;;;;;12.94;80.64;100716.83;129950;1259;114811;-66
2023/05/21 02:31:06;;;;;;;23.40;20.30;;;;;;;12.88;80.72;100716.98;129985;1256;114776;-64
2023/05/21 02:34:09;;;;;;;23.70;19.10;;;;;;;12.82;80.71;100715.82;129766;1261;114774;-64
2023/05/21 02:37:11;;;;;;;26.10;20.70;;;;;;;12.75;80.45;100716.55;129744;1257;114702;-64
2023/05/21 02:40:13;;;;;;;24.90;21.10;;;;;;;12.67;80.37;100712.83;129740;1256;115209;-65
2023/05/21 02:43:16;;;;;;;26.30;21.20;;;;;;;12.61;80.72;100714.58;129753;1262;114688;-65
2023/05/21 02:46:19;;;;;;;25.60;20.50;;;;;;;12.55;80.55;100712.55;129666;1280;115187;-65
2023/05/21 02:49:21;;;;;;;26.30;20.80;;;;;;;12.50;80.04;100714.83;129656;1256;114739;-65
2023/05/21 02:52:23;;;;;;;29.80;22.10;;;;;;;12.44;80.49;100716.35;129882;1260;114803;-64
2023/05/21 02:55:25;;;;;;;27.00;20.50;;;;;;;12.41;81.07;100713.08;129803;1262;114791;-65
2023/05/21 02:58:28;;;;;;;30.00;22.40;;;;;;;12.37;80.72;100709.88;129681;1259;114710;-65
2023/05/21 03:01:31;;;;;;;31.60;20.20;;;;;;;12.32;80.75;100706.89;129528;1280;114882;-64
2023/05/21 03:04:37;;;;;;;22.90;19.20;;;;;;;12.28;80.85;100708.02;129498;1262;115349;-64
2023/05/21 03:07:40;;;;;;;24.50;20.10;;;;;;;12.26;81.01;100704.35;129356;1257;114820;-65
2023/05/21 03:10:43;;;;;;;22.60;20.10;;;;;;;12.25;80.94;100702.41;129769;1259;115824;-65
2023/05/21 03:13:45;;;;;;;26.50;21.20;;;;;;;12.23;80.77;100701.80;129649;1258;114843;-65
2023/05/21 03:16:50;;;;;;;25.00;20.40;;;;;;;12.23;80.86;100706.12;129726;1262;114875;-65
2023/05/21 03:19:53;;;;;;;25.50;19.30;;;;;;;12.23;80.67;100708.10;129693;1262;114819;-66
2023/05/21 03:22:56;;;;;;;23.00;19.40;;;;;;;12.23;80.92;100707.01;129664;1258;114727;-66
2023/05/21 03:25:58;;;;;;;27.90;20.80;;;;;;;12.25;80.88;100704.77;129616;1262;114828;-66
2023/05/21 03:29:01;;;;;;;23.80;19.40;;;;;;;12.26;81.17;100703.41;129622;1259;114744;-66
2023/05/21 03:32:05;;;;;;;28.70;22.80;;;;;;;12.31;81.31;100699.41;129468;1257;114751;-66
2023/05/21 03:35:07;;;;;;;29.30;22.10;;;;;;;12.39;81.24;100701.57;129745;1262;114809;-65
2023/05/21 03:38:10;;;;;;;28.70;22.40;;;;;;;12.49;82.22;100698.16;129885;1262;114765;-65
2023/05/21 03:41:14;;;;;;;26.80;22.80;;;;;;;12.61;82.16;100698.42;129555;1258;114840;-65
2023/05/21 03:44:16;;;;;;;29.60;22.50;;;;;;;12.73;82.25;100701.61;129735;1265;114809;-67
2023/05/21 03:47:19;;;;;;;31.90;23.10;;;;;;;12.84;82.39;100699.80;129640;1262;114831;-66
2023/05/21 03:50:21;;;;;;;29.20;23.10;;;;;;;12.96;82.57;100701.32;129768;1262;115139;-66
2023/05/21 03:53:24;;;;;;;28.70;20.90;;;;;;;13.08;82.56;100702.45;129709;1260;114722;-65
2023/05/21 03:56:26;;;;;;;25.60;21.80;;;;;;;13.21;82.66;100702.48;129471;1272;115314;-64
2023/05/21 03:59:29;;;;;;;28.80;21.80;;;;;;;13.35;82.69;100706.59;129727;1260;114744;-64
2023/05/21 04:02:32;;;;;;;26.90;21.50;;;;;;;13.46;82.52;100703.45;129806;1258;114758;-65
2023/05/21 04:05:34;;;;;;;25.50;20.50;;;;;;;13.59;82.56;100706.91;129715;1280;114718;-65
2023/05/21 04:08:37;;;;;;;26.90;20.80;;;;;;;13.71;82.45;100713.62;129503;1262;114844;-65
2023/05/21 04:11:39;;;;;;;23.90;20.70;;;;;;;13.82;82.46;100714.39;129562;1260;114722;-65
2023/05/21 04:14:42;;;;;;;28.40;21.10;;;;;;;13.95;82.35;100713.88;129729;1260;114782;-64
2023/05/21 04:17:49;;;;;;;24.30;19.70;;;;;;;14.08;82.18;100712.23;129689;1256;115234;-65
2023/05/21 04:20:52;;;;;;;29.40;19.20;;;;;;;14.20;82.23;100709.73;129456;1259;114997;-65
2023/05/21 04:23:56;;;;;;;22.60;19.60;;;;;;;14.33;81.92;100710.26;129532;1262;114716;-65
2023/05/21 04:27:00;;;;;;;26.90;19.20;;;;;;;14.45;81.87;100712.02;129630;1262;116393;-65
2023/05/21 04:30:03;;;;;;;20.80;18.40;;;;;;;14.61;81.81;100711.31;129408;1267;128153;-65
2023/05/21 04:33:06;;;;;;;19.60;17.40;;;;;;;14.77;81.56;100714.69;129794;1280;115130;-66
2023/05/21 04:36:09;;;;;;;21.20;18.60;;;;;;;15.03;81.55;100714.19;129594;1258;114706;-65
2023/05/21 04:39:13;;;;;;;19.50;17.00;;;;;;;15.63;82.20;100711.19;129717;1262;114715;-65
2023/05/21 04:42:15;;;;;;;20.60;16.50;;;;;;;16.43;81.68;100707.98;129372;1280;114774;-65
2023/05/21 04:45:18;;;;;;;20.70;16.20;;;;;;;17.23;80.47;100707.19;129475;1280;115232;-65
2023/05/21 04:48:25;;;;;;;22.00;14.90;;;;;;;17.95;78.94;100707.80;129572;1280;114722;-65
2023/05/21 04:51:29;;;;;;;18.50;15.10;;;;;;;18.55;77.53;100701.33;129581;1256;114780;-66
2023/05/21 04:54:31;;;;;;;19.70;14.40;;;;;;;19.20;76.99;100696.11;129549;1264;114788;-65
2023/05/21 04:57:34;;;;;;;14.30;12.80;;;;;;;19.78;74.97;100699.26;129687;1280;114738;-65
2023/05/21 05:00:38;;;;;;;14.00;12.00;;;;;;;20.21;73.04;100698.69;129560;1280;114798;-65
2023/05/21 05:03:40;;;;;;;14.00;12.60;;;;;;;20.71;72.97;100695.70;129682;1258;114735;-66
2023/05/21 05:06:43;;;;;;;15.00;11.80;;;;;;;21.15;70.71;100696.44;129599;1260;114757;-65
2023/05/21 05:09:45;;;;;;;15.10;12.60;;;;;;;21.61;71.04;100698.66;129664;1260;115158;-66
2023/05/21 05:12:48;;;;;;;12.80;11.40;;;;;;;22.10;69.78;100697.60;129954;1280;114709;-66
2023/05/21 05:15:53;;;;;;;16.80;12.60;;;;;;;22.54;68.19;100697.61;129696;1277;114707;-66
2023/05/21 05:18:55;;;;;;;15.00;11.80;;;;;;;22.76;66.11;100700.34;129646;1262;129615;-65
2023/05/21 05:22:01;;;;;;;12.80;10.60;;;;;;;22.87;65.49;100693.29;129537;1280;114717;-67
2023/05/21 05:25:05;;;;;;;12.70;10.80;;;;;;;23.09;64.53;100694.58;129593;1262;114799;-66
2023/05/21 05:28:07;;;;;;;17.00;12.30;;;;;;;23.30;63.66;100698.47;129360;1260;115241;-66
2023/05/21 05:31:10;;;;;;;12.40;11.00;;;;;;;23.30;62.73;100695.33;129478;1262;114791;-65
2023/05/21 05:34:12;;;;;;;13.10;10.80;;;;;;;23.51;62.95;100694.73;129503;1273;114747;-66
2023/05/21 05:37:14;;;;;;;16.90;11.20;;;;;;;23.69;61.11;100690.63;129546;1262;114808;-66
2023/05/21 05:40:17;;;;;;;11.90;10.70;;;;;;;23.73;61.19;100682.56;129402;1262;116287;-66
2023/05/21 05:43:20;;;;;;;13.30;11.00;;;;;;;24.00;61.45;100684.34;129558;1262;114803;-66
2023/05/21 05:46:23;;;;;;;11.10;9.90;;;;;;;24.19;59.68;100680.77;129520;1262;114672;-66
2023/05/21 05:49:25;;;;;;;14.70;10.20;;;;;;;24.27;59.53;100681.80;129508;1262;114841;-65
2023/05/21 05:52:27;;;;;;;11.00;9.80;;;;;;;24.50;58.83;100676.38;129741;1257;115593;-67
2023/05/21 05:55:30;;;;;;;14.60;9.50;;;;;;;24.68;58.97;100674.89;129477;1262;128221;-67
2023/05/21 05:58:32;;;;;;;15.60;9.90;;;;;;;24.89;57.34;100672.42;129681;1279;114756;-66
2023/05/21 06:01:34;;;;;;;11.90;9.60;;;;;;;24.99;56.94;100670.95;129741;1259;115319;-66
2023/05/21 06:04:36;;;;;;;11.90;9.40;;;;;;;25.24;57.03;100668.52;129689;1280;115105;-66
2023/05/21 06:07:39;;;;;;;13.20;9.70;;;;;;;25.58;56.87;100667.52;129546;1280;114790;-66
2023/05/21 06:10:42;;;;;;;15.80;9.70;;;;;;;25.94;56.75;100668.09;129637;1280;114851;-67
2023/05/21 06:13:45;;;;;;;11.40;9.50;;;;;;;26.18;54.95;100667.88;129695;1270;114796;-66
2023/05/21 06:16:47;;;;;;;10.20;8.60;;;;;;;26.31;54.64;100666.42;129612;1279;114799;-66
2023/05/21 06:19:49;;;;;;;10.10;8.40;;;;;;;26.53;54.15;100661.71;129777;1272;114808;-66
2023/05/21 06:22:51;;;;;;;9.50;8.60;;;;;;;26.83;53.64;100661.37;129548;1279;114881;-66
2023/05/21 06:25:54;;;;;;;10.40;8.30;;;;;;;26.96;52.94;100660.24;129625;1280;115160;-66
2023/05/21 06:28:56;;;;;;;9.60;8.10;;;;;;;27.21;53.00;100663.52;129779;1279;114719;-66
2023/05/21 06:31:58;;;;;;;9.10;8.20;;;;;;;27.50;52.07;100659.95;129628;1260;114770;-67
2023/05/21 06:35:01;;;;;;;11.00;7.40;;;;;;;27.58;50.51;100656.65;129753;1276;114975;-66
2023/05/21 06:38:04;;;;;;;11.90;7.50;;;;;;;27.44;48.48;100658.84;129750;1260;114740;-66
2023/05/21 06:41:06;;;;;;;9.90;7.50;;;;;;;27.33;48.72;100656.80;129910;1260;114720;-66
2023/05/21 06:44:08;;;;;;;14.20;7.40;;;;;;;27.46;48.52;100656.64;129975;1280;114798;-66
2023/05/21 06:47:11;;;;;;;12.90;8.20;;;;;;;27.55;48.39;100653.20;129977;1261;114698;-66
2023/05/21 06:50:13;;;;;;;8.40;7.40;;;;;;;27.72;47.72;100652.66;130025;1262;114733;-67
2023/05/21 06:53:15;;;;;;;8.30;6.90;;;;;;;27.96;47.53;100652.31;129947;1262;115034;-66
2023/05/21 06:56:18;;;;;;;10.00;7.40;;;;;;;28.08;46.06;100654.07;129802;1262;114707;-66
2023/05/21 06:59:20;;;;;;;9.00;7.60;;;;;;;28.00;45.65;100651.45;129646;1259;115251;-65
2023/05/21 07:02:22;;;;;;;8.60;6.90;;;;;;;28.07;46.08;100652.42;129785;1279;114792;-66
2023/05/21 07:05:24;;;;;;;10.70;6.70;;;;;;;28.06;45.09;100649.46;130056;1261;114735;-66
2023/05/21 07:08:26;;;;;;;8.10;7.20;;;;;;;28.06;45.28;100648.20;129747;1279;114890;-66
2023/05/21 07:11:28;;;;;;;8.70;6.70;;;;;;;28.25;45.46;100643.02;130140;1271;114706;-67
2023/05/21 07:14:30;;;;;;;12.00;6.60;;;;;;;28.52;45.36;100642.93;129609;1262;116624;-67
2023/05/21 07:17:33;;;;;;;10.60;7.40;;;;;;;28.90;44.43;100639.64;129608;1279;114708;-67
2023/05/21 07:20:35;;;;;;;7.90;6.80;;;;;;;29.00;43.76;100640.22;130115;1278;114698;-67
2023/05/21 07:23:37;;;;;;;9.70;7.80;;;;;;;29.28;43.82;100639.58;129883;1262;114927;-67
2023/05/21 07:26:39;;;;;;;9.20;6.90;;;;;;;29.50;43.51;100637.67;129530;1280;114707;-66
2023/05/21 07:29:41;;;;;;;10.60;7.30;;;;;;;29.80;43.55;100632.02;129717;1262;114803;-67
2023/05/21 07:32:44;;;;;;;8.70;7.30;;;;;;;30.15;43.01;100631.53;129613;1261;114887;-67
2023/05/21 07:35:47;;;;;;;9.10;6.80;;;;;;;30.42;41.98;100630.96;129824;1274;114742;-67
2023/05/21 07:38:49;;;;;;;8.70;6.80;;;;;;;30.51;41.06;100631.42;130084;1280;115203;-66
2023/05/21 07:41:52;;;;;;;8.80;7.50;;;;;;;30.39;40.99;100628.05;129679;1280;114735;-67
2023/05/21 07:44:54;;;;;;;7.90;6.80;;;;;;;30.34;40.62;100629.29;129636;1263;114772;-65
2023/05/21 07:47:56;;;;;;;8.20;6.80;;;;;;;30.32;40.50;100632.33;129283;1280;114947;-66
2023/05/21 07:50:59;;;;;;;13.60;7.10;;;;;;;30.24;39.84;100632.14;129740;1262;114795;-66
2023/05/21 07:54:01;;;;;;;9.30;6.90;;;;;;;30.09;39.99;100630.63;129732;1278;115241;-66
2023/05/21 07:57:05;;;;;;;9.80;6.40;;;;;;;30.13;40.81;100629.65;129930;1279;114728;-66
2023/05/21 08:00:13;;;;;;;7.60;6.90;;;;;;;30.26;40.83;100630.98;129872;1262;116223;-67
2023/05/21 08:03:16;;;;;;;8.90;7.20;;;;;;;30.43;40.44;100629.23;130323;1270;114671;-69
2023/05/21 08:06:23;;;;;;;8.50;7.20;;;;;;;30.34;39.33;100631.45;130326;1260;114761;-66
2023/05/21 08:09:27;;;;;;;;;;;;;;;30.07;39.37;100632.73;130332;1262;114827;-65
2023/05/21 08:12:30;;;;;;;24.20;6.80;;;;;;;29.95;39.83;100631.36;130118;1262;114715;-66
2023/05/21 08:15:32;;;;;;;7.90;7.00;;;;;;;29.99;40.21;100628.56;130316;1260;114708;-67
2023/05/21 08:18:35;;;;;;;8.00;7.10;;;;;;;30.06;39.13;100626.86;130452;1256;115199;-67
2023/05/21 08:21:38;;;;;;;8.40;7.30;;;;;;;29.86;38.78;100623.15;130257;1262;114774;-66
2023/05/21 08:24:40;;;;;;;6.20;5.60;;;;;;;29.87;39.83;100621.45;130442;1262;114850;-67
2023/05/21 08:27:42;;;;;;;7.30;6.50;;;;;;;29.82;39.15;100620.33;129583;1265;114820;-66
2023/05/21 08:30:45;;;;;;;7.50;6.10;;;;;;;29.72;38.88;100620.48;129843;1278;114793;-67
2023/05/21 08:33:51;;;;;;;8.40;6.20;;;;;;;29.52;38.94;100617.09;129888;1279;115055;-66
2023/05/21 08:36:54;;;;;;;8.50;5.20;;;;;;;29.49;38.80;100621.90;129808;1260;114739;-66
2023/05/21 08:39:56;;;;;;;7.30;5.90;;;;;;;29.26;37.75;100620.70;129950;1262;114711;-67
2023/05/21 08:43:00;;;;;;;9.70;6.00;;;;;;;28.94;38.52;100622.40;130072;1280;114795;-68
2023/05/21 08:46:03;;;;;;;9.40;5.80;;;;;;;28.91;39.21;100617.21;129766;1280;114730;-66
2023/05/21 08:49:11;;;;;;;8.60;5.30;;;;;;;29.03;38.86;100615.69;129757;1279;114771;-67
2023/05/21 08:52:14;;;;;;;7.80;6.20;;;;;;;28.88;38.07;100615.81;129725;1262;115110;-68
2023/05/21 08:55:17;;;;;;;8.30;5.40;;;;;;;28.57;38.22;100620.27;130141;1258;115312;-66
2023/05/21 08:58:20;;;;;;;8.10;4.80;;;;;;;28.48;38.66;100619.42;129633;1280;115106;-67
2023/05/21 09:01:25;;;;;;;7.30;5.10;;;;;;;28.44;38.55;100621.98;129795;1280;114840;-67
2023/05/21 09:04:28;;;;;;;7.30;4.90;;;;;;;28.36;38.92;100621.85;129522;1262;121216;-67
2023/05/21 09:07:30;;;;;;;10.60;6.00;;;;;;;28.24;38.74;100621.50;130262;1280;114803;-67
2023/05/21 09:10:37;;;;;;;8.20;5.70;;;;;;;28.11;38.40;100619.73;130230;1262;115209;-66
2023/05/21 09:13:40;;;;;;;6.70;5.10;;;;;;;28.01;39.32;100619.41;129867;1270;115471;-66
2023/05/21 09:16:47;;;;;;;8.50;5.20;;;;;;;28.12;39.20;100618.70;129915;1262;115138;-70
2023/05/21 09:20:17;;;;;;;8.00;4.80;;;;;;;28.13;39.10;100620.73;129914;1265;119685;-65
2023/05/21 09:23:53;;;;;;;5.70;4.70;;;;;;;28.02;38.75;100623.45;130207;1262;114776;-68
2023/05/21 09:27:02;;;;;;;5.40;4.50;;;;;;;27.93;38.99;100619.84;129606;1280;114898;-67
2023/05/21 09:30:09;;;;;;;5.00;4.60;;;;;;;27.89;39.16;100620.59;129806;1262;115231;-65
2023/05/21 09:33:12;;;;;;;7.50;4.40;;;;;;;27.92;39.24;100619.91;129819;1259;114721;-66
2023/05/21 09:36:18;;;;;;;5.00;4.50;;;;;;;27.82;38.80;100616.67;129635;1262;114752;-68
2023/05/21 09:39:30;;;;;;;6.10;4.40;;;;;;;27.61;38.33;100611.75;129984;1262;115333;-67
2023/05/21 09:42:32;;;;;;;6.00;4.80;;;;;;;27.41;38.53;100610.23;129771;1265;114783;-68
2023/05/21 09:45:34;;;;;;;5.30;4.70;;;;;;;27.19;38.56;100605.28;129513;1281;115144;-67
2023/05/21 09:48:41;;;;;;;6.10;4.00;;;;;;;26.99;38.86;100608.55;129684;1281;115348;-65
2023/05/21 09:51:44;;;;;;;7.30;4.70;;;;;;;26.86;38.99;100599.98;129795;1281;114739;-67
2023/05/21 09:54:46;;;;;;;5.50;4.40;;;;;;;26.74;39.39;100602.85;129611;1271;114839;-70
2023/05/21 09:57:49;;;;;;;6.70;3.70;;;;;;;26.67;39.74;100596.09;129486;1278;114806;-66
2023/05/21 10:00:51;;;;;;;7.80;4.50;;;;;;;26.61;39.91;100591.46;129552;1264;115049;-66
2023/05/21 10:03:56;;;;;;;6.30;4.30;;;;;;;26.56;40.08;100589.04;129517;1264;115519;-66
2023/05/21 10:06:58;;;;;;;6.60;4.10;;;;;;;26.52;39.95;100590.70;129451;1260;217498;-67
2023/05/21 10:10:03;;;;;;;11.10;4.40;;;;;;;26.35;39.80;100591.02;129649;1281;114740;-67
2023/05/21 10:13:08;;;;;;;;;;;;;;;26.17;39.43;100590.36;129544;1263;120380;-68
2023/05/21 10:16:11;;;;;;;7.50;4.30;;;;;;;25.99;39.61;100583.81;129728;1271;116159;-69
2023/05/21 10:19:15;;;;;;;6.20;3.70;;;;;;;25.89;39.57;100579.95;129677;1261;114781;-68
2023/05/21 10:22:17;;;;;;;4.90;3.50;;;;;;;25.87;40.00;100578.45;129710;1263;114716;-66
2023/05/21 10:25:19;;;;;;;4.60;3.50;;;;;;;25.87;39.29;100577.63;129477;1280;114863;-65
2023/05/21 10:28:23;;;;;;;7.70;3.80;;;;;;;25.85;39.26;100571.17;129475;1275;114757;-63
2023/05/21 10:31:26;;;;;;;4.50;3.20;;;;;;;25.87;39.62;100576.22;129727;1259;120179;-68
2023/05/21 10:34:31;;;;;;;5.20;3.20;;;;;;;25.87;39.32;100572.17;129752;1260;114772;-66
2023/05/21 10:37:33;;;;;;;;;;;;;;;25.87;38.98;100572.38;129721;1278;114713;-67
2023/05/21 10:40:35;;;;;;;6.90;3.60;;;;;;;25.87;39.38;100572.42;129704;1257;115337;-67
2023/05/21 10:44:02;;;;;;;6.30;4.00;;;;;;;25.86;39.11;100571.35;129689;1262;114779;-65
2023/05/21 10:47:31;;;;;;;6.00;3.60;;;;;;;25.90;39.20;100573.06;129693;1259;120214;-66
2023/05/21 10:50:57;;;;;;;6.60;4.10;;;;;;;25.87;38.36;100565.61;129578;1270;114863;-67
2023/05/21 10:54:25;;;;;;;4.10;3.40;;;;;;;25.82;38.52;100565.64;129592;1276;114803;-67
2023/05/21 10:57:41;;;;;;;5.90;3.70;;;;;;;25.79;38.19;100563.38;129919;1262;115151;-66
2023/05/21 11:00:44;;;;;;;6.80;3.20;;;;;;;25.73;38.11;100563.98;129476;1279;114890;-69
2023/05/21 11:03:49;;;;;;;12.10;3.90;;;;;;;25.70;37.87;100565.02;130132;1275;115274;-71
2023/05/21 11:06:52;;;;;;;5.30;3.70;;;;;;;25.72;37.76;100556.64;129704;1275;115262;-68
2023/05/21 11:10:28;;;;;;;8.20;3.50;;;;;;;25.73;37.80;100557.39;129845;1258;114806;-63
2023/05/21 11:13:48;;;;;;;5.40;3.60;;;;;;;25.73;37.73;100560.73;129843;1262;114706;-69
2023/05/21 11:16:50;;;;;;;4.80;3.50;;;;;;;25.71;37.33;100558.80;129848;1259;115382;-67
2023/05/21 11:19:53;;;;;;;4.20;3.20;;;;;;;25.74;37.25;100556.83;129755;1277;114712;-66
2023/05/21 11:22:57;;;;;;;7.20;3.60;;;;;;;25.76;36.93;100555.64;129886;1272;114747;-67
2023/05/21 11:26:00;;;;;;;7.50;3.00;;;;;;;25.79;36.87;100555.10;129894;1278;114858;-64
2023/05/21 11:29:07;;;;;;;4.40;3.50;;;;;;;25.78;36.18;100549.52;129972;1259;114815;-67
2023/05/21 11:32:14;;;;;;;5.00;3.40;;;;;;;25.72;36.76;100551.81;129604;1279;114929;-69
2023/05/21 11:35:16;;;;;;;5.70;3.60;;;;;;;25.72;37.16;100548.39;129460;1264;119354;-67
2023/05/21 11:38:18;;;;;;;8.10;3.70;;;;;;;25.72;37.71;100550.00;129649;1260;114706;-64
2023/05/21 11:41:21;;;;;;;6.80;3.70;;;;;;;25.74;37.65;100549.78;129749;1273;114705;-67
2023/05/21 11:44:46;;;;;;;6.40;3.50;;;;;;;25.74;37.69;100546.45;129706;1275;114880;-66
2023/05/21 11:47:49;;;;;;;5.90;3.40;;;;;;;25.73;37.45;100543.50;129544;1268;114844;-71
2023/05/21 11:50:51;;;;;;;5.70;3.50;;;;;;;25.72;37.44;100537.61;129808;1273;114644;-71
2023/05/21 11:53:56;;;;;;;6.90;3.00;;;;;;;25.71;37.27;100534.22;129786;1279;114762;-67
2023/05/21 11:56:58;;;;;;;6.20;3.50;;;;;;;25.69;37.40;100528.42;129909;1260;115652;-70
2023/05/21 12:00:07;;;;;;;4.40;3.30;;;;;;;25.72;37.40;100530.85;129953;1262;115575;-69
2023/05/21 12:03:13;;;;;;;8.40;3.40;;;;;;;25.75;37.65;100530.16;129583;1273;114695;-70
2023/05/21 12:06:16;;;;;;;6.70;4.30;;;;;;;25.76;37.52;100524.41;129649;1259;114798;-67
2023/05/21 12:09:19;;;;;;;7.40;3.90;;;;;;;25.79;37.93;100521.48;129672;1262;120459;-67
2023/05/21 12:12:25;;;;;;;7.30;3.90;;;;;;;25.83;37.34;100517.38;129837;1279;114811;-68
2023/05/21 12:15:27;;;;;;;8.20;3.70;;;;;;;25.78;36.84;100519.23;129577;1262;114836;-68
2023/05/21 12:18:30;;;;;;;4.50;3.60;;;;;;;25.74;37.09;100521.24;129810;1278;114801;-67
2023/05/21 12:21:33;;;;;;;7.20;3.40;;;;;;;25.72;37.31;100517.11;129685;1278;114944;-70
2023/05/21 12:24:36;;;;;;;4.60;3.70;;;;;;;25.73;36.86;100521.14;129861;1273;114826;-67
2023/05/21 12:27:40;;;;;;;5.60;3.80;;;;;;;25.71;36.81;100517.23;130059;1268;114730;-66
2023/05/21 12:30:43;;;;;;;5.40;3.40;;;;;;;25.72;36.78;100518.06;129868;1263;114836;-66
2023/05/21 12:33:48;;;;;;;6.00;4.10;;;;;;;25.71;36.58;100521.04;130019;1278;114749;-66
2023/05/21 12:36:50;;;;;;;6.10;3.70;;;;;;;25.72;37.06;100519.98;129848;1273;114791;-65
2023/05/21 12:39:54;;;;;;;4.80;3.20;;;;;;;25.76;36.70;100520.36;129649;1260;114878;-69
2023/05/21 12:42:57;;;;;;;5.60;3.60;;;;;;;25.77;36.47;100515.31;129938;1261;114731;-68
2023/05/21 12:46:00;;;;;;;5.80;3.20;;;;;;;25.78;36.59;100513.37;129852;1260;114830;-70
2023/05/21 12:49:02;;;;;;;6.60;3.50;;;;;;;25.81;36.49;100509.14;129868;1260;115522;-68
2023/05/21 12:52:10;;;;;;;6.40;3.70;;;;;;;25.83;36.86;100517.67;129732;1278;115396;-65
2023/05/21 12:55:13;;;;;;;6.30;3.20;;;;;;;25.88;36.79;100513.91;129884;1272;120287;-69
2023/05/21 12:58:16;;;;;;;4.80;3.70;;;;;;;25.93;36.14;100512.71;129880;1259;115083;-66
2023/05/21 13:01:20;;;;;;;4.90;3.40;;;;;;;25.97;36.54;100508.28;129760;1261;114709;-71
2023/05/21 13:04:22;;;;;;;5.60;3.40;;;;;;;26.01;36.32;100507.45;129552;1262;116353;-64
2023/05/21 13:07:27;;;;;;;5.90;3.40;;;;;;;26.04;36.31;100504.20;129678;1270;114812;-68
2023/05/21 13:10:29;;;;;;;6.00;3.40;;;;;;;26.07;35.59;100502.98;129766;1269;120362;-70
2023/05/21 13:13:31;;;;;;;4.30;3.20;;;;;;;26.07;35.95;100503.36;129780;1279;114800;-68
2023/05/21 13:16:34;;;;;;;7.20;3.40;;;;;;;26.06;36.16;100504.87;129751;1259;115298;-66
2023/05/21 13:19:37;;;;;;;4.20;3.30;;;;;;;26.06;36.02;100503.30;129841;1259;114815;-65
2023/05/21 13:22:47;;;;;;;4.30;3.60;;;;;;;26.05;36.24;100502.59;129681;1272;114805;-65
2023/05/21 13:25:49;;;;;;;6.00;3.50;;;;;;;26.05;35.66;100507.34;129816;1260;114719;-67
2023/05/21 13:28:52;;;;;;;4.30;3.70;;;;;;;26.00;35.16;100506.73;129806;1270;114796;-66
2023/05/21 13:31:54;;;;;;;4.20;3.30;;;;;;;25.95;35.68;100500.29;131381;1260;114871;-66
2023/05/21 13:34:56;;;;;;;5.90;3.50;;;;;;;25.89;35.75;100502.39;130107;1260;114722;-66
2023/05/21 13:37:59;;;;;;;3.70;3.00;;;;;;;25.86;35.72;100501.21;129455;1263;115123;-67
2023/05/21 13:41:01;;;;;;;6.10;3.20;;;;;;;25.85;35.32;100503.03;129618;1273;114767;-65
2023/05/21 13:44:03;;;;;;;3.50;3.20;;;;;;;25.84;35.37;100498.54;129807;1269;115019;-67
2023/05/21 13:47:06;;;;;;;4.40;3.10;;;;;;;25.84;35.28;100492.40;129525;1278;114831;-66